Stockman, Texas
Current Conditions -  °F | °C
As of 4:55 PM on Tuesday 27 Jan 2015 (Local Time) from KOCH Reporting Station
Clear Clear  
Wind Chill: 75°   Ceiling: Unl
Heat Index: 75°   Visibility: 10mi
Dew Point: 41°   Wind: 3mph
Humidity: 29%   Direction: 130°SE
Pressure: 30.11"   Gusts: NA
Location:  31.8636°N, 94.3909°W
Report Text: KOCH 272255Z 13003KT 10SM CLR 24/05 A3011 RMK AO1
Loading
Personal Weather Stations






























Interactive Weather Map New forecast layout! Learn more

10-Day Weather Forecast

Advertisements
Track Severe Weather on mobile